Time;durP1;ratioP1;P1;durP2;ratioP2;P2;SDS_P1;SDS_P2;PMS_P1;PMS_P2;Temp;Humidity;BMP_temperature;BMP_pressure;BME280_temperature;BME280_humidity;BME280_pressure;Samples;Min_cycle;Max_cycle;Signal;HPM_P1;HPM_P2
2022/09/05 00:02:09;;;;;;;3.80;2.70;;;;;;;14.75;50.24;101111.63;1608842;89;21001;-87
2022/09/05 00:05:13;;;;;;;2.95;2.65;;;;;;;14.78;49.52;101103.17;1606787;86;21564;-87
2022/09/05 00:07:52;;;;;;;2.62;2.42;;;;;;;14.84;49.03;101102.89;1595662;89;21052;-85
2022/09/05 00:10:59;;;;;;;5.60;2.85;;;;;;;14.87;49.13;101100.64;1635532;87;21573;-86
2022/09/05 00:13:40;;;;;;;3.50;2.52;;;;;;;14.90;49.31;101102.09;1562854;91;21064;-86
2022/09/05 00:16:53;;;;;;;4.25;2.70;;;;;;;14.91;48.93;101095.19;1804136;78;23237;-86
2022/09/05 00:19:33;;;;;;;3.62;2.17;;;;;;;14.90;48.84;101090.86;1735316;83;21470;-85
2022/09/05 00:22:20;;;;;;;2.65;2.10;;;;;;;14.92;48.38;101092.83;1735070;82;21041;-85
2022/09/05 00:25:01;;;;;;;3.60;2.47;;;;;;;14.92;48.29;101090.15;1726253;83;21104;-86
2022/09/05 00:28:01;;;;;;;4.62;1.90;;;;;;;14.92;48.47;101092.02;1704338;84;21093;-86
2022/09/05 00:30:33;;;;;;;2.98;2.00;;;;;;;14.93;48.86;101093.12;1704666;84;21050;-86
2022/09/05 00:33:27;;;;;;;2.27;2.08;;;;;;;14.95;48.66;101088.91;1716867;83;20993;-87
2022/09/05 00:36:08;;;;;;;4.53;1.70;;;;;;;14.95;48.09;101079.52;1735619;82;21557;-84
2022/09/05 00:38:39;;;;;;;3.95;1.65;;;;;;;14.97;47.18;101085.02;1736133;83;21049;-85
2022/09/05 00:41:12;;;;;;;2.10;1.22;;;;;;;14.97;46.58;101081.48;1724427;82;21073;-87
2022/09/05 00:43:43;;;;;;;2.08;1.35;;;;;;;14.95;46.20;101082.20;1707501;84;21044;-87
2022/09/05 00:46:17;;;;;;;2.33;1.00;;;;;;;14.93;46.16;101079.70;1732550;82;21044;-90
2022/09/05 00:48:56;;;;;;;2.92;1.70;;;;;;;14.91;45.90;101076.40;1734534;82;21033;-87
2022/09/05 00:51:43;;;;;;;2.45;1.72;;;;;;;14.91;45.71;101067.00;1735518;82;21156;-86
2022/09/05 00:54:43;;;;;;;1.40;1.32;;;;;;;14.91;45.52;101062.16;1680753;83;21022;-83
2022/09/05 00:58:05;;;;;;;1.40;1.02;;;;;;;14.93;44.70;101063.60;1747249;81;21508;-84
2022/09/05 01:00:46;;;;;;;1.50;1.40;;;;;;;14.91;44.68;101064.84;1765654;81;21508;-82
2022/09/05 01:03:35;;;;;;;1.65;1.27;;;;;;;14.87;44.77;101067.09;1766249;81;21083;-85
2022/09/05 01:06:17;;;;;;;4.25;2.25;;;;;;;14.83;44.61;101057.78;1766147;81;20994;-85
2022/09/05 01:09:22;;;;;;;5.58;1.20;;;;;;;14.81;44.68;101068.42;1765953;81;21172;-85
2022/09/05 01:12:26;;;;;;;1.92;1.27;;;;;;;14.77;45.21;101056.73;1765840;81;21526;-85
2022/09/05 01:15:26;;;;;;;1.70;1.40;;;;;;;14.78;45.33;101056.20;1765992;81;21136;-84
2022/09/05 01:18:15;;;;;;;3.98;1.57;;;;;;;14.76;45.12;101052.89;1739061;81;21505;-86
2022/09/05 01:21:07;;;;;;;1.55;1.25;;;;;;;14.70;45.15;101056.38;1766047;81;20993;-85
2022/09/05 01:24:01;;;;;;;2.05;1.55;;;;;;;14.64;45.52;101053.15;1766752;81;21038;-83
2022/09/05 01:26:39;;;;;;;2.77;1.60;;;;;;;14.56;45.86;101053.59;1767370;81;21106;-84
2022/09/05 01:29:28;;;;;;;2.10;1.87;;;;;;;14.49;46.11;101047.34;1749484;81;21041;-82
2022/09/05 01:32:15;;;;;;;2.75;1.45;;;;;;;14.46;46.29;101047.73;1765681;81;21069;-85
2022/09/05 01:35:08;;;;;;;1.67;1.25;;;;;;;14.41;46.32;101048.85;1765598;81;21045;-85
2022/09/05 01:37:43;;;;;;;1.75;1.25;;;;;;;14.35;46.65;101052.30;1765537;81;21569;-85
2022/09/05 01:40:35;;;;;;;1.25;1.10;;;;;;;14.29;46.88;101049.88;1764320;81;21069;-84
2022/09/05 01:43:19;;;;;;;5.10;2.00;;;;;;;14.26;46.79;101049.44;1739751;81;20998;-84
2022/09/05 01:45:50;;;;;;;1.40;1.30;;;;;;;14.24;47.10;101044.79;1765287;81;21125;-85
2022/09/05 01:48:49;;;;;;;5.42;1.55;;;;;;;14.18;47.52;101041.03;1765613;81;21025;-85
2022/09/05 01:51:47;;;;;;;1.70;1.60;;;;;;;14.14;47.05;101049.16;1765580;81;21625;-85
2022/09/05 01:54:34;;;;;;;2.40;1.22;;;;;;;14.05;48.26;101043.09;1765780;81;21600;-86
2022/09/05 01:57:20;;;;;;;3.83;1.80;;;;;;;13.95;49.00;101051.47;1765626;81;21017;-85
2022/09/05 02:00:09;;;;;;;3.35;1.55;;;;;;;13.91;49.38;101045.36;1765441;81;21108;-84
2022/09/05 02:02:50;;;;;;;2.15;1.40;;;;;;;13.86;49.28;101048.61;1765484;81;21561;-83
2022/09/05 02:05:50;;;;;;;2.27;1.20;;;;;;;13.88;49.27;101049.27;1765556;81;21006;-82
2022/09/05 02:08:31;;;;;;;1.37;1.15;;;;;;;13.87;49.14;101045.44;1765610;81;21033;-83
2022/09/05 02:11:09;;;;;;;1.25;1.12;;;;;;;13.87;50.17;101043.58;1765990;81;21080;-85
2022/09/05 02:13:47;;;;;;;2.22;1.65;;;;;;;13.94;49.83;101040.45;1765857;81;21128;-84
2022/09/05 02:16:37;;;;;;;2.15;1.95;;;;;;;13.99;48.91;101031.81;1765704;81;21045;-83
2022/09/05 02:19:29;;;;;;;2.65;1.92;;;;;;;14.01;48.04;101025.26;1765654;81;21064;-84
2022/09/05 02:22:10;;;;;;;2.60;1.80;;;;;;;14.10;47.32;101024.59;1765569;81;21002;-84
2022/09/05 02:24:41;;;;;;;4.50;1.65;;;;;;;14.21;46.73;101023.23;1764353;81;21139;-84
2022/09/05 02:27:43;;;;;;;1.37;1.27;;;;;;;14.30;46.36;101020.72;1765689;81;21133;-84
2022/09/05 02:30:26;;;;;;;2.27;1.95;;;;;;;14.38;46.11;101017.05;1749265;81;21045;-83
2022/09/05 02:33:25;;;;;;;3.58;2.40;;;;;;;14.47;45.80;101017.73;1765642;81;21057;-84
2022/09/05 02:36:29;;;;;;;3.17;1.60;;;;;;;14.52;45.33;101009.90;1765506;81;21033;-85
2022/09/05 02:39:18;;;;;;;3.10;1.90;;;;;;;14.54;45.41;101016.75;1765441;81;20982;-86
2022/09/05 02:42:01;;;;;;;3.58;2.02;;;;;;;14.56;45.50;101016.52;1765064;81;21002;-86
2022/09/05 02:44:52;;;;;;;4.40;2.08;;;;;;;14.58;45.43;101008.64;1765268;81;20981;-84
2022/09/05 02:47:24;;;;;;;3.17;2.10;;;;;;;14.60;45.05;101006.59;1765572;81;21073;-85
2022/09/05 02:50:23;;;;;;;4.65;3.22;;;;;;;14.62;45.14;101011.76;1765404;81;21037;-83
2022/09/05 02:52:51;;;;;;;3.22;2.60;;;;;;;14.67;44.85;101009.28;1729317;83;21014;-83
2022/09/05 02:55:23;;;;;;;3.37;2.98;;;;;;;14.72;44.01;101006.02;1734556;83;21081;-82
2022/09/05 02:57:58;;;;;;;4.00;3.33;;;;;;;14.74;43.99;101009.33;1732429;83;21073;-82
2022/09/05 03:00:29;;;;;;;5.55;3.85;;;;;;;14.75;43.52;101012.34;1730295;83;21694;-83
2022/09/05 03:03:21;;;;;;;7.78;4.10;;;;;;;14.76;43.42;101018.01;1714390;83;21125;-84
2022/09/05 03:06:10;;;;;;;4.58;4.17;;;;;;;14.76;43.55;101013.45;1704039;83;21070;-84
2022/09/05 03:08:54;;;;;;;6.05;4.03;;;;;;;14.76;43.42;101013.98;1731918;81;20985;-83
2022/09/05 03:11:34;;;;;;;6.45;3.52;;;;;;;14.76;43.49;101022.03;1731534;82;21092;-84
2022/09/05 03:14:31;;;;;;;8.23;4.22;;;;;;;14.75;43.74;101021.73;1750658;81;21080;-83
2022/09/05 03:17:53;;;;;;;7.30;4.30;;;;;;;14.76;43.77;101019.34;1759917;81;21116;-80
2022/09/05 03:20:50;;;;;;;4.58;4.17;;;;;;;14.78;44.00;101017.29;1723915;83;21042;-83
2022/09/05 03:23:48;;;;;;;5.20;3.72;;;;;;;14.77;43.96;101016.47;1704453;83;21078;-82
2022/09/05 03:26:40;;;;;;;4.53;4.12;;;;;;;14.76;44.18;101018.01;1724003;83;21482;-83
2022/09/05 03:29:39;;;;;;;8.70;4.33;;;;;;;14.76;44.22;101018.01;1723884;83;21058;-82
2022/09/05 03:32:19;;;;;;;5.62;4.40;;;;;;;14.76;44.44;101022.85;1723796;83;21106;-83
2022/09/05 03:35:18;;;;;;;5.78;4.47;;;;;;;14.73;44.75;101021.93;1723752;83;21062;-83
2022/09/05 03:38:17;;;;;;;7.92;4.80;;;;;;;14.74;44.78;101022.75;1724062;83;21577;-82
2022/09/05 03:41:05;;;;;;;7.72;4.45;;;;;;;14.73;44.90;101021.93;1724290;83;21006;-84
2022/09/05 03:43:54;;;;;;;5.15;4.22;;;;;;;14.72;45.02;101020.26;1724629;83;21030;-84
2022/09/05 03:46:32;;;;;;;7.78;5.00;;;;;;;14.74;45.10;101018.72;1724953;83;21062;-83
2022/09/05 03:49:48;;;;;;;7.85;4.95;;;;;;;14.73;45.31;101022.42;1724816;83;21473;-85
2022/09/05 03:52:55;;;;;;;9.25;5.80;;;;;;;14.71;45.54;101022.64;1724486;83;21038;-83
2022/09/05 03:55:41;;;;;;;11.38;5.72;;;;;;;14.70;45.60;101022.31;1724171;83;21042;-82
2022/09/05 03:58:51;;;;;;;9.73;5.90;;;;;;;14.69;45.83;101022.50;1724036;83;20982;-85
2022/09/05 04:01:25;;;;;;;7.08;5.67;;;;;;;14.71;45.91;101024.47;1724095;83;21077;-84
2022/09/05 04:04:00;;;;;;;7.10;6.08;;;;;;;14.71;46.10;101023.98;1716522;83;20995;-86
2022/09/05 04:06:37;;;;;;;8.48;5.28;;;;;;;14.68;46.36;101024.37;1724020;83;21081;-84
2022/09/05 04:09:38;;;;;;;10.35;5.72;;;;;;;14.66;46.52;101018.38;1724228;83;20998;-84
2022/09/05 04:12:19;;;;;;;7.15;6.20;;;;;;;14.65;46.85;101016.70;1723981;83;21034;-83
2022/09/05 04:14:50;;;;;;;5.62;4.80;;;;;;;14.65;46.95;101018.57;1723590;83;21042;-86
2022/09/05 04:17:34;;;;;;;10.00;5.60;;;;;;;14.67;47.28;101023.22;1713941;83;21629;-85
2022/09/05 04:20:21;;;;;;;11.60;5.85;;;;;;;14.68;47.20;101017.66;1704781;84;21580;-86
2022/09/05 04:23:17;;;;;;;9.83;5.45;;;;;;;14.69;47.36;101017.99;1697778;84;21456;-82
2022/09/05 04:26:14;;;;;;;12.13;5.87;;;;;;;14.71;47.27;101014.59;1711315;84;20939;-83
2022/09/05 04:29:13;;;;;;;6.05;5.45;;;;;;;14.74;47.17;101019.55;1711434;84;20971;-83
2022/09/05 04:32:06;;;;;;;7.92;5.08;;;;;;;14.76;47.18;101022.03;1711441;84;21019;-84
2022/09/05 04:35:14;;;;;;;6.00;5.47;;;;;;;14.76;47.27;101024.19;1711273;84;21045;-85
2022/09/05 04:38:06;;;;;;;11.45;6.03;;;;;;;14.77;47.15;101019.67;1711771;84;20979;-84
2022/09/05 04:40:47;;;;;;;7.67;5.05;;;;;;;14.74;47.26;101022.75;1711258;84;20967;-87
2022/09/05 04:43:31;;;;;;;5.28;4.78;;;;;;;14.71;47.27;101028.01;1711654;84;21498;-84
2022/09/05 04:46:14;;;;;;;10.78;6.30;;;;;;;14.72;47.47;101026.14;1710889;84;21574;-85
2022/09/05 04:48:55;;;;;;;7.83;5.60;;;;;;;14.72;47.45;101028.83;1711249;84;20991;-84
2022/09/05 04:52:11;;;;;;;7.40;5.40;;;;;;;14.72;47.74;101027.48;1711096;84;21604;-87
2022/09/05 04:54:58;;;;;;;8.80;6.25;;;;;;;14.73;47.70;101027.30;1710460;84;21067;-84
2022/09/05 04:57:51;;;;;;;7.17;5.85;;;;;;;14.75;47.68;101032.47;1711183;84;20995;-82
2022/09/05 05:00:55;;;;;;;9.03;6.10;;;;;;;14.77;48.11;101035.78;1706924;84;20995;-82
2022/09/05 05:03:32;;;;;;;6.47;5.20;;;;;;;14.79;48.19;101033.72;1711290;84;21486;-82
2022/09/05 05:06:12;;;;;;;6.62;5.90;;;;;;;14.82;48.63;101024.44;1710978;84;21049;-79
2022/09/05 05:09:03;;;;;;;11.03;6.03;;;;;;;14.84;48.29;101037.95;1710825;84;20995;-81
2022/09/05 05:11:44;;;;;;;9.33;6.65;;;;;;;14.85;48.42;101038.80;1711320;84;21055;-75
2022/09/05 05:14:50;;;;;;;9.88;6.50;;;;;;;14.88;49.04;101038.39;1711139;84;21518;-80
2022/09/05 05:17:39;;;;;;;8.33;5.85;;;;;;;14.90;48.85;101035.84;1710925;84;21006;-81
2022/09/05 05:20:25;;;;;;;10.38;6.85;;;;;;;14.92;49.26;101037.80;1711375;84;21134;-76
2022/09/05 05:23:01;;;;;;;14.83;8.38;;;;;;;14.96;49.19;101041.73;1711630;84;21081;-77
2022/09/05 05:25:30;;;;;;;8.25;6.45;;;;;;;15.00;49.36;101034.12;1710825;84;21039;-81
2022/09/05 05:28:29;;;;;;;10.93;6.67;;;;;;;15.05;49.81;101037.04;1711439;84;21034;-82
2022/09/05 05:31:00;;;;;;;8.38;6.70;;;;;;;15.07;49.54;101035.47;1711014;84;21905;-82
2022/09/05 05:33:31;;;;;;;9.70;7.90;;;;;;;15.09;50.22;101044.18;1710966;84;21043;-83
2022/09/05 05:36:01;;;;;;;8.38;6.53;;;;;;;15.08;50.20;101041.17;1711268;84;21570;-82
2022/09/05 05:38:39;;;;;;;9.50;6.67;;;;;;;15.11;50.41;101037.56;1710925;82;21042;-83
2022/09/05 05:41:23;;;;;;;12.00;7.87;;;;;;;15.16;50.58;101045.00;1710581;84;21016;-82
2022/09/05 05:43:50;;;;;;;9.63;7.10;;;;;;;15.18;50.47;101043.80;1711455;84;21168;-82
2022/09/05 05:46:33;;;;;;;10.58;8.05;;;;;;;15.15;50.91;101043.37;1710542;84;21015;-82
2022/09/05 05:49:37;;;;;;;13.08;10.40;;;;;;;15.13;51.21;101035.51;1711002;84;21035;-85
2022/09/05 05:52:30;;;;;;;15.32;8.10;;;;;;;15.09;51.90;101037.47;1711336;84;20980;-83
2022/09/05 05:55:28;;;;;;;10.70;9.60;;;;;;;15.01;53.92;101041.65;1711313;84;21145;-82
2022/09/05 05:58:37;;;;;;;10.10;8.60;;;;;;;14.83;54.20;101044.37;1711413;84;21019;-78
2022/09/05 06:01:32;;;;;;;10.78;7.60;;;;;;;14.72;55.90;101046.27;1711111;84;21027;-83
2022/09/05 06:04:38;;;;;;;11.68;7.95;;;;;;;14.66;56.32;101056.47;1711731;84;21070;-84
2022/09/05 06:07:26;;;;;;;12.55;8.65;;;;;;;14.62;56.67;101061.88;1711306;84;21015;-85
2022/09/05 06:10:23;;;;;;;10.90;8.48;;;;;;;14.61;57.87;101054.36;1709700;84;21006;-81
2022/09/05 06:13:28;;;;;;;12.07;9.10;;;;;;;14.65;57.10;101055.61;1710412;84;21018;-84
2022/09/05 06:16:30;;;;;;;18.37;9.88;;;;;;;14.67;57.56;101052.73;1678987;85;21593;-86
2022/09/05 06:19:40;;;;;;;14.93;10.72;;;;;;;15.18;55.82;101049.66;1648140;87;21078;-83
2022/09/05 06:22:45;;;;;;;20.45;11.22;;;;;;;16.00;53.52;101055.84;1645077;86;21050;-79
2022/09/05 06:25:46;;;;;;;19.07;14.90;;;;;;;16.41;50.72;100985.36;1663103;83;21164;-83
2022/09/05 06:28:31;;;;;;;26.55;19.45;;;;;;;17.50;48.72;101056.39;1619162;86;21222;-83
2022/09/05 06:31:22;;;;;;;46.33;31.70;;;;;;;18.02;46.48;101055.72;1641472;87;21541;-84
2022/09/05 06:34:20;;;;;;;62.35;44.48;;;;;;;18.24;45.66;101058.03;1711176;83;21537;-85
2022/09/05 06:37:00;;;;;;;65.90;50.83;;;;;;;18.17;45.88;101057.27;1719661;83;21479;-82
2022/09/05 06:39:51;;;;;;;78.97;55.80;;;;;;;18.08;45.83;101062.95;1719184;83;21581;-80
2022/09/05 06:42:25;;;;;;;147.55;113.68;;;;;;;18.29;46.90;101064.95;1719189;83;21025;-80
2022/09/05 06:45:42;;;;;;;151.80;118.17;;;;;;;18.49;45.83;101075.54;1718220;83;21089;-81
2022/09/05 06:48:22;;;;;;;140.05;105.10;;;;;;;18.40;46.08;101087.16;1720127;83;21073;-83
2022/09/05 06:51:13;;;;;;;123.33;96.05;;;;;;;17.95;47.06;101112.95;1721841;83;21050;-83
2022/09/05 06:54:06;;;;;;;110.63;83.97;;;;;;;17.63;47.58;101120.16;1720674;83;21018;-82
2022/09/05 06:56:53;;;;;;;99.32;74.12;;;;;;;17.20;48.35;101113.53;1719468;83;21509;-84
2022/09/05 07:00:02;;;;;;;84.65;65.97;;;;;;;16.79;49.44;101114.66;1720162;83;21074;-82
2022/09/05 07:02:37;;;;;;;80.70;60.35;;;;;;;16.49;51.01;101206.59;1719530;83;20999;-83
2022/09/05 07:05:46;;;;;;;80.60;56.50;;;;;;;16.06;54.98;101137.03;1716952;83;21053;-82
2022/09/05 07:08:38;;;;;;;72.40;53.38;;;;;;;15.71;57.49;101133.13;1721622;82;21035;-83
2022/09/05 07:11:16;;;;;;;59.35;47.75;;;;;;;15.25;60.85;101131.08;1749544;82;20986;-82
2022/09/05 07:13:59;;;;;;;69.15;48.28;;;;;;;14.89;63.32;101132.66;1749367;82;21567;-85
2022/09/05 07:16:33;;;;;;;70.00;49.40;;;;;;;14.54;63.48;101144.17;1749626;82;20994;-83
2022/09/05 07:19:29;;;;;;;73.25;53.25;;;;;;;14.17;68.32;101138.08;1749566;82;21027;-83
2022/09/05 07:22:12;;;;;;;154.18;112.52;;;;;;;13.85;69.78;101121.17;1749455;82;21081;-82
2022/09/05 07:24:43;;;;;;;210.45;155.78;;;;;;;13.57;69.39;101091.09;1749474;82;21046;-80
2022/09/05 07:27:31;;;;;;;187.68;137.32;;;;;;;13.36;69.53;101081.19;1748682;82;20998;-82
2022/09/05 07:29:59;;;;;;;225.30;166.15;;;;;;;13.21;71.76;101095.91;1750877;82;21058;-86
2022/09/05 07:32:28;;;;;;;206.65;151.82;;;;;;;13.01;74.16;101111.19;1750989;82;21066;-85
2022/09/05 07:34:57;;;;;;;202.70;148.78;;;;;;;12.92;74.40;101122.17;1749751;82;21046;-86
2022/09/05 07:37:41;;;;;;;199.97;143.65;;;;;;;12.88;74.88;101165.86;1749258;82;20966;-85
2022/09/05 07:40:14;;;;;;;158.65;116.25;;;;;;;12.87;78.31;101168.23;1749237;82;21161;-85
2022/09/05 07:43:06;;;;;;;132.63;93.72;;;;;;;12.82;78.68;101174.11;1749500;82;21002;-88
2022/09/05 07:45:40;;;;;;;98.37;71.72;;;;;;;12.82;79.90;101192.02;1749167;82;21474;-84
2022/09/05 07:48:15;;;;;;;91.15;66.30;;;;;;;12.79;78.46;101185.67;1749197;82;21046;-87
2022/09/05 07:50:54;;;;;;;85.47;60.43;;;;;;;12.80;78.80;101198.88;1749354;82;21014;-85
2022/09/05 07:53:21;;;;;;;83.82;54.58;;;;;;;12.78;79.89;101188.87;1749035;82;21093;-86
2022/09/05 07:55:58;;;;;;;81.42;57.17;;;;;;;12.66;81.92;101183.65;1749503;82;21070;-87
2022/09/05 07:58:40;;;;;;;80.00;57.45;;;;;;;12.55;83.38;101184.08;1749207;82;21521;-85
2022/09/05 08:01:11;;;;;;;65.05;50.48;;;;;;;12.45;83.96;101191.84;1749065;82;21002;-86
2022/09/05 08:03:38;;;;;;;67.78;50.28;;;;;;;12.42;84.85;101176.16;1749414;82;21038;-86
2022/09/05 08:06:09;;;;;;;62.58;47.95;;;;;;;12.40;84.59;101168.00;1749170;82;21149;-86
2022/09/05 08:08:49;;;;;;;67.67;48.33;;;;;;;12.38;84.52;101166.01;1749221;82;20970;-86
2022/09/05 08:11:17;;;;;;;70.70;49.95;;;;;;;12.38;85.36;101152.13;1749036;82;21074;-85
2022/09/05 08:13:58;;;;;;;67.17;46.28;;;;;;;12.41;86.21;101142.42;1749350;82;21082;-84
2022/09/05 08:16:27;;;;;;;59.42;45.70;;;;;;;12.44;86.16;101127.84;1749362;82;21118;-83
2022/09/05 08:19:29;;;;;;;63.40;45.28;;;;;;;12.49;87.92;101109.42;1749249;82;21113;-82
2022/09/05 08:21:58;;;;;;;61.88;44.05;;;;;;;12.54;88.07;101109.69;1678115;84;21094;-87
2022/09/05 08:24:31;;;;;;;62.00;43.42;;;;;;;12.59;87.89;101119.34;1701813;84;21015;-83
2022/09/05 08:31:19;;;;;;;66.80;45.85;;;;;;;12.84;88.53;101119.91;1691977;85;21538;-86
2022/09/05 08:33:50;;;;;;;61.53;45.98;;;;;;;12.99;91.15;101123.10;1718071;83;21002;-84
2022/09/05 08:36:33;;;;;;;54.70;42.93;;;;;;;13.09;92.22;101126.83;1729322;80;21017;-84
2022/09/05 08:39:04;;;;;;;56.90;44.00;;;;;;;13.18;91.57;101119.02;1730736;83;21078;-85
2022/09/05 08:41:57;;;;;;;54.90;41.33;;;;;;;13.28;91.88;101128.09;1702031;83;21018;-84
2022/09/05 08:44:40;;;;;;;58.40;41.95;;;;;;;13.36;91.29;101128.05;1723896;83;21180;-84
2022/09/05 08:47:27;;;;;;;51.18;39.88;;;;;;;13.45;90.09;101124.25;1698882;84;20977;-86
2022/09/05 08:50:18;;;;;;;57.73;40.03;;;;;;;13.58;90.11;101127.08;1698861;84;21616;-85
2022/09/05 08:52:56;;;;;;;54.45;38.63;;;;;;;13.69;88.84;101131.09;1691072;83;21018;-85
2022/09/05 08:55:40;;;;;;;47.33;37.95;;;;;;;13.82;86.61;101119.69;1672111;86;21194;-86
2022/09/05 08:58:35;;;;;;;54.03;39.75;;;;;;;14.00;85.17;101117.92;1691865;85;21010;-86
2022/09/05 09:01:16;;;;;;;54.15;38.65;;;;;;;14.20;84.94;101120.27;1695626;84;21050;-85
2022/09/05 09:03:59;;;;;;;47.93;36.35;;;;;;;14.40;86.49;101120.41;1696991;84;21054;-84
2022/09/05 09:06:51;;;;;;;51.70;38.88;;;;;;;14.58;84.80;101114.61;1696031;85;21474;-87
2022/09/05 09:10:00;;;;;;;39.10;31.48;;;;;;;14.76;85.42;101112.75;1702393;84;21062;-85
2022/09/05 09:12:53;;;;;;;38.65;28.98;;;;;;;14.93;82.17;101108.42;1706310;84;21529;-83
2022/09/05 09:15:45;;;;;;;39.27;30.10;;;;;;;15.03;81.13;101104.87;1668514;84;21557;-86
2022/09/05 09:18:18;;;;;;;35.73;29.48;;;;;;;15.19;80.85;101109.06;1651770;86;21118;-85
2022/09/05 09:21:02;;;;;;;39.80;29.37;;;;;;;15.26;80.49;101091.65;1652393;86;21276;-86
2022/09/05 09:23:48;;;;;;;40.20;25.65;;;;;;;15.52;80.37;101103.82;1663762;86;21582;-86
2022/09/05 09:26:21;;;;;;;28.47;22.93;;;;;;;15.68;79.83;101103.95;1620630;86;21051;-87
2022/09/05 09:29:02;;;;;;;27.67;21.27;;;;;;;15.80;77.49;101101.52;1677657;84;21012;-84
2022/09/05 09:31:58;;;;;;;25.48;19.20;;;;;;;15.94;77.30;101106.42;1668106;86;21059;-82
2022/09/05 09:34:33;;;;;;;18.57;14.95;;;;;;;16.07;76.90;101101.05;1685255;85;21104;-80
2022/09/05 09:37:43;;;;;;;14.23;11.48;;;;;;;16.18;74.19;101096.08;1687101;82;21016;-80
2022/09/05 09:40:43;;;;;;;11.12;8.73;;;;;;;16.23;70.01;101089.05;1644098;87;21153;-78
2022/09/05 09:43:47;;;;;;;12.25;10.48;;;;;;;16.35;67.23;101088.73;1687043;85;21101;-86
2022/09/05 09:46:37;;;;;;;13.85;11.60;;;;;;;16.43;65.61;101086.34;1671221;85;21517;-85
2022/09/05 09:49:23;;;;;;;16.65;13.38;;;;;;;16.47;65.24;101080.03;1675732;84;21032;-87
2022/09/05 09:52:24;;;;;;;18.92;16.90;;;;;;;16.53;65.55;101080.01;1688795;84;21065;-88
2022/09/05 09:55:11;;;;;;;19.85;15.03;;;;;;;16.63;65.69;101069.33;1654416;86;21052;-83
2022/09/05 09:58:03;;;;;;;19.10;15.08;;;;;;;16.77;65.48;101060.72;1635646;88;21036;-85
2022/09/05 10:00:50;;;;;;;20.85;16.62;;;;;;;16.94;66.06;101056.55;1687574;84;21022;-85
2022/09/05 10:03:42;;;;;;;17.27;15.03;;;;;;;17.12;63.95;101056.69;1687423;84;21072;-85
2022/09/05 10:06:37;;;;;;;16.90;13.32;;;;;;;17.38;63.50;101044.63;1647678;85;21110;-88
2022/09/05 10:09:21;;;;;;;14.35;11.95;;;;;;;17.38;63.50;101044.63;1685328;83;21049;-87
2022/09/05 10:12:11;;;;;;;14.03;8.58;;;;;;;17.50;62.25;101042.91;1669107;84;21546;-87
2022/09/05 10:15:00;;;;;;;7.03;6.12;;;;;;;17.63;60.41;101042.83;1693186;85;21181;-88
2022/09/05 10:18:03;;;;;;;9.10;5.42;;;;;;;17.66;58.06;101034.28;1668484;85;21135;-87
2022/09/05 10:21:05;;;;;;;3.70;2.45;;;;;;;17.69;56.26;101039.78;1694034;83;21065;-87
2022/09/05 10:24:10;;;;;;;2.08;1.90;;;;;;;17.72;52.97;101050.11;1695443;85;21085;-82
2022/09/05 10:26:56;;;;;;;5.83;3.30;;;;;;;17.69;52.74;101041.95;1695407;85;21078;-89
2022/09/05 10:29:45;;;;;;;4.25;3.55;;;;;;;17.56;52.27;101063.59;1695859;85;20979;-87
2022/09/05 10:32:16;;;;;;;2.50;2.33;;;;;;;17.27;56.19;101079.81;1692545;85;21049;-85
2022/09/05 10:34:56;;;;;;;3.67;2.47;;;;;;;16.73;56.56;101071.91;1697192;84;20998;-90
2022/09/05 10:37:42;;;;;;;2.15;1.92;;;;;;;16.23;59.36;101111.91;1698306;84;21083;-82
2022/09/05 10:40:12;;;;;;;0.80;0.70;;;;;;;15.78;58.34;101101.42;1697047;84;21018;-91
2022/09/05 10:42:50;;;;;;;1.67;1.12;;;;;;;15.45;59.20;101086.84;1678224;85;21059;-92
2022/09/05 10:45:50;;;;;;;2.50;2.10;;;;;;;15.30;58.58;101068.73;1667990;86;21106;-83
2022/09/05 10:48:49;;;;;;;2.50;1.55;;;;;;;15.23;62.03;101067.87;1634770;87;21098;-88
2022/09/05 10:51:21;;;;;;;1.98;1.17;;;;;;;15.16;63.19;101066.48;1709486;84;21223;-83
2022/09/05 10:54:16;;;;;;;1.75;1.17;;;;;;;15.21;62.99;101057.32;1699082;84;21002;-91
2022/09/05 10:56:49;;;;;;;1.00;0.65;;;;;;;15.30;63.38;101056.64;1696249;84;21057;-91
2022/09/05 10:59:34;;;;;;;1.72;1.02;;;;;;;15.37;61.66;101046.23;1694317;84;21054;-89
2022/09/05 11:02:07;;;;;;;2.33;1.17;;;;;;;15.47;59.35;101049.05;1695150;84;21109;-89
2022/09/05 11:05:19;;;;;;;1.07;1.07;;;;;;;15.61;60.00;101045.33;1695895;84;21073;-94
2022/09/05 11:08:02;;;;;;;1.75;0.70;;;;;;;15.75;61.06;101040.33;1697871;84;21134;-93
2022/09/05 11:10:36;;;;;;;2.92;1.00;;;;;;;15.91;59.00;101038.27;1697759;84;21486;-92
2022/09/05 11:13:21;;;;;;;2.22;1.70;;;;;;;16.07;57.45;101033.00;1690466;84;21033;-90
2022/09/05 11:16:12;;;;;;;1.60;1.17;;;;;;;16.21;56.35;101038.66;1699664;83;21330;-86
2022/09/05 11:18:56;;;;;;;1.22;0.78;;;;;;;16.35;55.99;101028.20;1699892;81;21089;-82
2022/09/05 11:21:54;;;;;;;1.22;0.70;;;;;;;16.51;55.14;101031.48;1698823;84;21475;-88
2022/09/05 11:24:37;;;;;;;2.37;0.70;;;;;;;16.63;53.98;101025.77;1696993;84;21023;-90
2022/09/05 11:27:33;;;;;;;2.50;1.35;;;;;;;16.73;53.70;101023.98;1696997;84;21146;-78
2022/09/05 11:30:16;;;;;;;2.35;0.53;;;;;;;16.91;50.71;101024.65;1696686;84;21038;-89
2022/09/05 11:33:20;;;;;;;1.37;0.82;;;;;;;16.91;50.71;101024.65;1672950;84;21038;-90
2022/09/05 11:36:00;;;;;;;1.75;0.60;;;;;;;17.04;52.08;101025.94;1711837;84;21038;-85
2022/09/05 11:38:33;;;;;;;1.95;0.85;;;;;;;17.12;50.73;101017.63;1711480;84;20998;-85
2022/09/05 11:41:34;;;;;;;1.27;1.10;;;;;;;17.21;51.03;101019.53;1704896;84;21041;-86
2022/09/05 11:44:35;;;;;;;2.15;1.35;;;;;;;17.30;50.30;101012.03;1696672;85;21537;-84
2022/09/05 11:47:43;;;;;;;2.52;1.30;;;;;;;17.41;51.15;101003.79;1696335;85;21121;-86
2022/09/05 11:50:33;;;;;;;0.80;0.80;;;;;;;17.50;51.36;101002.48;1710747;84;21478;-84
2022/09/05 11:53:55;;;;;;;2.02;0.78;;;;;;;17.61;49.25;100988.80;1713341;84;21586;-86
2022/09/05 11:56:35;;;;;;;2.42;0.85;;;;;;;17.64;48.70;100993.77;1712735;84;21059;-84
2022/09/05 11:59:47;;;;;;;3.02;0.42;;;;;;;17.67;46.32;100991.47;1712579;84;21530;-89
2022/09/05 12:02:47;;;;;;;2.17;0.82;;;;;;;17.67;46.32;100991.47;1713781;83;21035;-84
2022/09/05 12:05:34;;;;;;;1.27;0.85;;;;;;;17.68;44.25;100977.45;1715221;83;21066;-90
2022/09/05 12:08:16;;;;;;;;;;;;;;;17.71;43.34;100987.81;1716880;84;21098;-90
2022/09/05 12:11:14;;;;;;;2.62;1.85;;;;;;;17.70;41.63;100993.70;1713899;84;20129;-93
2022/09/05 12:13:56;;;;;;;2.62;1.47;;;;;;;17.63;42.24;100988.91;1714186;84;21058;-90
2022/09/05 12:16:57;;;;;;;5.00;2.05;;;;;;;17.64;43.07;100993.24;1715114;84;21185;-91
2022/09/05 12:19:58;;;;;;;4.22;1.80;;;;;;;17.68;42.18;100990.94;1714968;83;21189;-92
2022/09/05 12:22:35;;;;;;;4.30;3.75;;;;;;;17.68;41.82;100990.41;1715479;83;21022;-85
2022/09/05 12:25:35;;;;;;;7.92;7.08;;;;;;;17.68;41.82;100990.41;1715464;84;21303;-92
2022/09/05 12:28:06;;;;;;;4.62;4.03;;;;;;;17.74;42.46;100988.70;1715256;84;21038;-91
2022/09/05 12:33:21;;;;;;;2.37;2.17;;;;;;;17.98;41.71;100989.77;1768056;76;23415;-82
2022/09/05 12:36:17;;;;;;;1.80;1.70;;;;;;;18.03;40.71;100989.94;1700088;84;21076;-82
2022/09/05 12:38:49;;;;;;;4.30;2.77;;;;;;;18.13;40.83;100975.94;1700528;84;21599;-92
2022/09/05 12:41:23;;;;;;;3.72;2.85;;;;;;;18.23;40.67;100988.41;1699144;84;21060;-90
2022/09/05 12:44:01;;;;;;;2.62;2.42;;;;;;;18.28;39.64;100975.05;1698103;84;21331;-82
2022/09/05 12:46:57;;;;;;;3.05;2.33;;;;;;;18.34;39.45;100969.28;1698968;84;21105;-84
2022/09/05 12:49:37;;;;;;;2.80;2.58;;;;;;;18.34;38.69;100969.28;1698389;83;21037;-90
2022/09/05 12:52:11;;;;;;;2.62;2.00;;;;;;;18.33;38.92;100974.40;1698815;84;21106;-84
2022/09/05 12:54:50;;;;;;;3.42;3.12;;;;;;;18.27;37.80;100965.33;1699605;84;21017;-91
2022/09/05 12:57:26;;;;;;;3.10;2.90;;;;;;;18.22;38.25;100969.21;1693448;82;21012;-84
2022/09/05 12:59:57;;;;;;;3.47;3.17;;;;;;;18.14;38.04;100957.88;1686982;85;21076;-86